createdAt,value
2023-02-15T00:00:48.416Z,17.85
2023-02-15T00:04:51.242Z,16.17
2023-02-15T00:08:55.669Z,16.95
2023-02-15T00:12:58.477Z,17.83
2023-02-15T00:17:01.746Z,16.65
2023-02-15T00:21:06.704Z,15.48
2023-02-15T00:25:10.844Z,15.68
2023-02-15T00:29:15.866Z,16.73
2023-02-15T00:33:18.806Z,15.17
2023-02-15T00:37:21.559Z,15.50
2023-02-15T00:41:26.104Z,16.42
2023-02-15T00:45:29.184Z,14.95
2023-02-15T00:49:32.081Z,14.15
2023-02-15T00:53:35.308Z,15.18
2023-02-15T00:57:39.587Z,15.52
2023-02-15T01:01:42.519Z,15.50
2023-02-15T01:05:45.579Z,15.05
2023-02-15T01:09:48.404Z,15.82
2023-02-15T01:13:53.858Z,15.80
2023-02-15T01:17:56.656Z,17.73
2023-02-15T01:21:59.480Z,16.48
2023-02-15T01:26:04.294Z,13.93
2023-02-15T01:30:09.971Z,15.68
2023-02-15T01:34:12.928Z,16.77
2023-02-15T01:38:16.204Z,14.82
2023-02-15T01:42:23.928Z,15.32
2023-02-15T01:46:32.541Z,15.38
2023-02-15T01:50:38.087Z,16.52
2023-02-15T01:54:42.708Z,16.85
2023-02-15T01:58:46.307Z,15.23
2023-02-15T02:02:55.604Z,16.02
2023-02-15T02:07:02.180Z,16.77
2023-02-15T02:11:05.031Z,16.48
2023-02-15T02:15:09.292Z,15.43
2023-02-15T02:19:50.725Z,16.88
2023-02-15T02:24:16.960Z,14.38
2023-02-15T02:28:37.816Z,13.70
2023-02-15T02:33:09.934Z,14.68
2023-02-15T02:37:21.453Z,15.57
2023-02-15T02:41:35.932Z,15.00
2023-02-15T02:45:45.449Z,12.43
2023-02-15T02:49:49.591Z,14.90
2023-02-15T02:53:56.473Z,13.45
2023-02-15T02:58:03.758Z,13.70
2023-02-15T03:02:13.827Z,15.98
2023-02-15T03:06:21.243Z,14.35
2023-02-15T03:10:26.506Z,15.68
2023-02-15T03:14:30.042Z,14.27
2023-02-15T03:18:37.681Z,14.57
2023-02-15T03:22:47.511Z,15.30
2023-02-15T03:26:53.048Z,13.73
2023-02-15T03:31:00.160Z,14.68
2023-02-15T03:35:03.613Z,14.98
2023-02-15T03:39:14.457Z,15.55
2023-02-15T03:43:20.559Z,14.88
2023-02-15T03:51:38.882Z,13.50
2023-02-15T03:55:43.269Z,12.95
2023-02-15T04:00:03.729Z,11.98
2023-02-15T04:04:20.117Z,12.85
2023-02-15T04:08:42.973Z,12.00
2023-02-15T04:12:47.132Z,12.80
2023-02-15T04:16:50.807Z,13.77
2023-02-15T04:21:11.417Z,12.95
2023-02-15T04:25:14.419Z,14.73
2023-02-15T04:29:18.611Z,15.32
2023-02-15T04:33:21.417Z,12.88
2023-02-15T04:37:24.419Z,11.38
2023-02-15T04:41:27.288Z,13.50
2023-02-15T04:45:31.589Z,13.48
2023-02-15T04:49:34.455Z,14.05
2023-02-15T04:53:37.605Z,13.85
2023-02-15T04:57:40.426Z,13.73
2023-02-15T05:01:44.636Z,12.90
2023-02-15T05:05:47.814Z,12.38
2023-02-15T05:09:50.587Z,13.10
2023-02-15T05:13:53.416Z,13.07
2023-02-15T05:17:57.584Z,14.38
2023-02-15T05:22:00.448Z,13.00
2023-02-15T05:26:20.861Z,12.68
2023-02-15T05:30:26.640Z,13.45
2023-02-15T05:34:30.984Z,14.45
2023-02-15T05:38:40.721Z,12.98
2023-02-15T05:42:43.489Z,13.65
2023-02-15T05:46:46.308Z,14.00
2023-02-15T05:50:59.453Z,13.85
2023-02-15T05:55:03.538Z,13.13
2023-02-15T05:59:06.360Z,12.88
2023-02-15T06:03:09.277Z,13.00
2023-02-15T06:07:13.488Z,14.00
2023-02-15T06:11:16.475Z,12.82
2023-02-15T06:15:19.593Z,13.38
2023-02-15T06:19:23.636Z,13.30
2023-02-15T06:23:27.909Z,12.88
2023-02-15T06:27:30.741Z,13.02
2023-02-15T06:31:33.766Z,12.93
2023-02-15T06:35:36.691Z,14.25
2023-02-15T06:39:40.856Z,13.32
2023-02-15T06:43:43.727Z,11.20
2023-02-15T06:47:46.612Z,12.60
2023-02-15T06:51:49.502Z,11.95
2023-02-15T06:55:53.730Z,12.68
2023-02-15T06:59:56.539Z,11.43
2023-02-15T07:03:59.391Z,11.25
2023-02-15T07:08:02.825Z,13.45
2023-02-15T07:12:25.418Z,12.38
2023-02-15T07:16:28.284Z,12.45
2023-02-15T07:20:31.227Z,12.73
2023-02-15T07:24:34.127Z,11.55
2023-02-15T07:28:38.286Z,12.07
2023-02-15T07:33:04.226Z,11.48
2023-02-15T07:37:07.913Z,10.90
2023-02-15T07:41:12.456Z,10.13
2023-02-15T07:45:16.862Z,9.50
2023-02-15T07:49:19.754Z,9.57
2023-02-15T07:53:22.573Z,10.38
2023-02-15T07:57:26.817Z,9.73
2023-02-15T08:01:33.571Z,9.00
2023-02-15T08:05:36.483Z,9.48
2023-02-15T08:09:39.304Z,9.15
2023-02-15T08:13:54.516Z,8.95
2023-02-15T08:17:58.729Z,8.55
2023-02-15T08:22:03.265Z,9.55
2023-02-15T08:26:06.587Z,9.75
2023-02-15T08:30:10.243Z,9.02
2023-02-15T08:34:19.420Z,10.27
2023-02-15T08:38:22.179Z,9.80
2023-02-15T08:42:25.023Z,10.43
2023-02-15T08:46:30.014Z,10.60
2023-02-15T08:50:34.279Z,11.48
2023-02-15T08:54:37.126Z,12.13
2023-02-15T08:58:40.671Z,12.60
2023-02-15T09:02:43.474Z,12.25
2023-02-15T09:06:51.876Z,11.73
2023-02-15T09:10:54.880Z,12.23
2023-02-15T09:14:57.768Z,12.18
2023-02-15T09:19:02.172Z,11.73
2023-02-15T09:23:07.574Z,10.68
2023-02-15T09:27:10.505Z,12.30
2023-02-15T09:31:16.109Z,11.55
2023-02-15T09:35:22.177Z,11.13
2023-02-15T09:39:29.163Z,11.98
2023-02-15T09:43:40.888Z,13.43
2023-02-15T09:48:02.901Z,11.15
2023-02-15T09:52:24.687Z,13.68
2023-02-15T09:56:38.042Z,11.52
2023-02-15T10:00:57.069Z,10.95
2023-02-15T10:05:14.490Z,8.93
2023-02-15T10:09:36.731Z,8.18
2023-02-15T10:13:49.965Z,7.85
2023-02-15T10:18:12.873Z,8.25
2023-02-15T10:22:33.969Z,7.55
2023-02-15T10:26:44.454Z,8.50
2023-02-15T10:30:52.279Z,9.73
2023-02-15T10:35:06.980Z,9.77
2023-02-15T10:39:25.656Z,9.73
2023-02-15T10:43:42.564Z,9.93
2023-02-15T10:47:59.818Z,10.35
2023-02-15T10:52:16.393Z,10.05
2023-02-15T10:56:24.369Z,9.70
2023-02-15T11:00:35.396Z,10.23
2023-02-15T11:04:53.070Z,9.90
2023-02-15T11:08:59.916Z,10.75
2023-02-15T11:13:07.071Z,9.85
2023-02-15T11:17:15.061Z,10.32
2023-02-15T11:21:24.344Z,10.82
2023-02-15T11:25:31.553Z,11.13
2023-02-15T11:29:39.437Z,10.82
2023-02-15T11:33:46.378Z,9.77
2023-02-15T11:37:55.631Z,11.73
2023-02-15T11:42:03.008Z,10.48
2023-02-15T11:46:05.977Z,11.20
2023-02-15T11:50:13.649Z,10.77
2023-02-15T11:54:17.859Z,11.57
2023-02-15T11:58:30.359Z,10.18
2023-02-15T12:02:35.874Z,11.98
2023-02-15T12:06:49.040Z,10.13
2023-02-15T12:11:08.260Z,10.75
2023-02-15T12:15:12.639Z,10.85
2023-02-15T12:19:29.333Z,11.27
2023-02-15T12:23:33.955Z,11.52
2023-02-15T12:27:38.191Z,10.95
2023-02-15T12:35:50.252Z,12.43
2023-02-15T12:39:56.113Z,11.77
2023-02-15T12:44:14.357Z,11.82
2023-02-15T12:48:22.613Z,12.35
2023-02-15T12:52:28.445Z,11.75
2023-02-15T12:56:34.501Z,11.88
2023-02-15T13:00:45.765Z,11.67
2023-02-15T13:04:51.971Z,12.25
2023-02-15T13:08:57.553Z,12.40
2023-02-15T13:13:04.024Z,12.55
2023-02-15T13:17:11.678Z,12.15
2023-02-15T13:21:18.077Z,12.82
2023-02-15T13:25:22.984Z,12.90
2023-02-15T13:29:29.350Z,12.65
2023-02-15T13:33:36.811Z,14.10
2023-02-15T13:38:01.437Z,13.57
2023-02-15T13:42:16.636Z,14.48
2023-02-15T13:46:37.227Z,14.82
2023-02-15T13:51:01.441Z,15.18
2023-02-15T13:55:28.441Z,15.48
2023-02-15T13:59:46.248Z,15.13
2023-02-15T14:04:14.654Z,15.90
2023-02-15T14:08:30.298Z,15.95
2023-02-15T14:12:49.130Z,15.23
2023-02-15T14:17:06.621Z,15.38
2023-02-15T14:21:15.603Z,15.93
2023-02-15T14:25:29.531Z,15.20
2023-02-15T14:29:45.998Z,14.90
2023-02-15T14:33:55.224Z,15.95
2023-02-15T14:38:04.565Z,16.52
2023-02-15T14:42:15.155Z,16.33
2023-02-15T14:46:33.381Z,15.15
2023-02-15T14:50:43.893Z,15.48
2023-02-15T14:54:59.018Z,15.32
2023-02-15T14:59:17.229Z,15.40
2023-02-15T15:03:24.938Z,16.08
2023-02-15T15:07:30.681Z,15.48
2023-02-15T15:11:46.119Z,15.47
2023-02-15T15:15:50.328Z,16.48
2023-02-15T15:20:02.558Z,16.55
2023-02-15T15:24:08.288Z,16.38
2023-02-15T15:28:11.178Z,16.23
2023-02-15T15:32:25.762Z,16.65
2023-02-15T15:37:20.438Z,16.45
2023-02-15T15:41:37.456Z,16.73
2023-02-15T15:46:05.346Z,18.15
2023-02-15T15:50:14.376Z,17.75
2023-02-15T15:54:20.031Z,17.00
2023-02-15T15:58:23.375Z,17.73
2023-02-15T16:02:26.141Z,17.52
2023-02-15T16:06:32.561Z,16.98
2023-02-15T16:14:41.435Z,16.52
2023-02-15T16:18:44.432Z,16.65
2023-02-15T16:22:49.291Z,17.17
2023-02-15T16:27:11.153Z,17.25
2023-02-15T16:31:15.740Z,17.08
2023-02-15T16:35:20.353Z,16.45
2023-02-15T16:39:24.530Z,17.40
2023-02-15T16:43:30.640Z,16.08
2023-02-15T16:47:37.930Z,17.35
2023-02-15T16:51:44.915Z,16.88
2023-02-15T16:55:52.378Z,17.90
2023-02-15T16:59:59.443Z,16.00
2023-02-15T17:04:26.305Z,17.27
2023-02-15T17:08:32.537Z,17.38
2023-02-15T17:12:56.031Z,18.17
2023-02-15T17:17:08.978Z,17.40
2023-02-15T17:21:14.120Z,18.35
2023-02-15T17:25:22.973Z,18.45
2023-02-15T17:29:34.555Z,19.83
2023-02-15T17:33:40.197Z,18.55
2023-02-15T17:37:48.781Z,18.85
2023-02-15T17:41:53.912Z,18.92
2023-02-15T17:45:59.405Z,19.80
2023-02-15T17:50:04.530Z,18.67
2023-02-15T17:54:25.063Z,19.10
2023-02-15T17:58:27.849Z,20.05
2023-02-15T18:02:53.440Z,20.67
2023-02-15T18:07:14.303Z,20.50
2023-02-15T18:11:36.837Z,19.83
2023-02-15T18:15:39.707Z,20.95
2023-02-15T18:19:45.009Z,19.85
2023-02-15T18:23:47.850Z,21.30
2023-02-15T18:27:51.367Z,22.48
2023-02-15T18:31:58.175Z,21.00
2023-02-15T18:36:04.183Z,20.27
2023-02-15T18:40:11.561Z,21.17
2023-02-15T18:44:14.347Z,20.70
2023-02-15T18:48:17.346Z,21.20
2023-02-15T18:52:23.648Z,20.23
2023-02-15T19:00:30.554Z,18.52
2023-02-15T19:04:33.340Z,20.92
2023-02-15T19:08:38.035Z,20.23
2023-02-15T19:12:40.897Z,18.95
2023-02-15T19:16:43.862Z,18.88
2023-02-15T19:20:47.813Z,19.35
2023-02-15T19:24:53.131Z,18.63
2023-02-15T19:28:55.996Z,20.43
2023-02-15T19:32:59.397Z,20.08
2023-02-15T19:37:02.212Z,22.30
2023-02-15T19:41:09.893Z,23.08
2023-02-15T19:45:15.656Z,23.90
2023-02-15T19:49:18.653Z,23.95
2023-02-15T19:53:24.198Z,25.00
2023-02-15T19:57:28.889Z,23.83
2023-02-15T20:01:31.674Z,23.00
2023-02-15T20:05:38.334Z,22.38
2023-02-15T20:09:43.412Z,22.40
2023-02-15T20:13:47.548Z,22.30
2023-02-15T20:17:50.735Z,28.92
2023-02-15T20:22:00.390Z,21.52
2023-02-15T20:26:12.562Z,20.05
2023-02-15T20:30:19.115Z,20.75
2023-02-15T20:34:21.986Z,20.23
2023-02-15T20:38:28.155Z,22.75
2023-02-15T20:46:35.010Z,19.95
2023-02-15T20:50:38.998Z,20.35
2023-02-15T20:54:41.835Z,20.30
2023-02-15T20:58:44.602Z,20.70
2023-02-15T21:02:50.462Z,18.90
2023-02-15T21:06:53.246Z,18.83
2023-02-15T21:10:56.486Z,17.95
2023-02-15T21:14:59.337Z,19.38
2023-02-15T21:19:03.515Z,21.42
2023-02-15T21:23:06.795Z,18.60
2023-02-15T21:27:14.283Z,29.65
2023-02-15T21:31:19.161Z,21.38
2023-02-15T21:35:24.010Z,21.05
2023-02-15T21:39:28.732Z,19.02
2023-02-15T21:43:48.977Z,22.10
2023-02-15T21:47:51.858Z,20.73
2023-02-15T21:52:21.948Z,19.95
2023-02-15T21:56:25.146Z,19.73
2023-02-15T22:00:28.810Z,31.85
2023-02-15T22:04:31.766Z,20.25
2023-02-15T22:08:36.241Z,19.75
2023-02-15T22:12:40.020Z,20.08
2023-02-15T22:16:42.822Z,20.00
2023-02-15T22:20:45.670Z,20.67
2023-02-15T22:24:49.819Z,19.70
2023-02-15T22:28:52.801Z,19.92
2023-02-15T22:32:57.168Z,20.85
2023-02-15T22:37:00.607Z,19.30
2023-02-15T22:41:06.133Z,19.92
2023-02-15T22:45:18.361Z,18.25
2023-02-15T22:49:21.179Z,16.80
2023-02-15T22:53:24.289Z,17.35
2023-02-15T22:57:31.375Z,16.15
2023-02-15T23:01:36.906Z,15.23
2023-02-15T23:05:39.858Z,15.30
2023-02-15T23:09:42.824Z,16.20
2023-02-15T23:13:49.068Z,14.80
2023-02-15T23:17:51.872Z,16.58
2023-02-15T23:21:54.843Z,15.43
2023-02-15T23:25:57.716Z,15.30
2023-02-15T23:30:03.600Z,14.13
2023-02-15T23:34:15.569Z,15.32
2023-02-15T23:38:26.345Z,14.15
2023-02-15T23:42:31.433Z,14.63
2023-02-15T23:46:41.690Z,13.73
2023-02-15T23:50:44.536Z,14.30
2023-02-15T23:54:47.310Z,14.10
2023-02-15T23:58:50.293Z,14.70
